Time;durP1;ratioP1;P1;durP2;ratioP2;P2;SDS_P1;SDS_P2;PMS_P1;PMS_P2;Temp;Humidity;BMP_temperature;BMP_pressure;BME280_temperature;BME280_humidity;BME280_pressure;Samples;Min_cycle;Max_cycle;Signal;HPM_P1;HPM_P2
2021/07/07 00:00:26;;;;;;;3.33;1.75;;;17.70;99.90;;;;;;5090670;28;20186;-82
2021/07/07 00:02:52;;;;;;;4.35;1.17;;;17.70;99.90;;;;;;5073358;28;20182;-81
2021/07/07 00:05:19;;;;;;;4.53;1.60;;;17.80;99.90;;;;;;5072556;28;20186;-81
2021/07/07 00:07:45;;;;;;;2.80;1.40;;;17.90;99.90;;;;;;5072569;28;20166;-81
2021/07/07 00:10:18;;;;;;;4.43;1.70;;;17.90;99.90;;;;;;5073966;28;20163;-80
2021/07/07 00:12:45;;;;;;;6.68;1.63;;;18.10;99.90;;;;;;5086934;28;20169;-81
2021/07/07 00:15:14;;;;;;;4.60;1.88;;;18.20;99.90;;;;;;5092971;28;20170;-80
2021/07/07 00:17:40;;;;;;;2.63;1.20;;;18.10;99.90;;;;;;5094018;28;20174;-81
2021/07/07 00:20:08;;;;;;;2.63;1.42;;;17.90;99.90;;;;;;5088574;28;20171;-80
2021/07/07 00:22:33;;;;;;;1.92;1.33;;;17.70;99.90;;;;;;5072828;28;20535;-80
2021/07/07 00:24:59;;;;;;;8.50;2.47;;;17.60;99.90;;;;;;5060681;28;20176;-80
2021/07/07 00:27:24;;;;;;;8.48;2.22;;;17.50;99.90;;;;;;5069025;28;20203;-80
2021/07/07 00:29:51;;;;;;;6.47;2.78;;;17.40;99.90;;;;;;5052279;28;20183;-80
2021/07/07 00:32:18;;;;;;;9.98;1.75;;;17.30;99.90;;;;;;5068504;28;20400;-80
2021/07/07 00:34:45;;;;;;;12.70;1.70;;;17.10;99.90;;;;;;5055230;28;20199;-79
2021/07/07 00:37:11;;;;;;;7.05;1.42;;;17.10;99.90;;;;;;5051874;28;20270;-79
2021/07/07 00:39:36;;;;;;;5.82;1.45;;;17.10;99.90;;;;;;5053449;28;20210;-80
2021/07/07 00:42:02;;;;;;;9.18;1.83;;;17.10;99.90;;;;;;5070230;28;20260;-80
2021/07/07 00:44:28;;;;;;;6.63;1.88;;;17.10;99.90;;;;;;5055452;28;20186;-81
2021/07/07 00:46:53;;;;;;;5.22;2.28;;;17.10;99.90;;;;;;5084031;28;20303;-80
2021/07/07 00:49:19;;;;;;;6.25;1.80;;;17.10;99.90;;;;;;5092240;28;20622;-80
2021/07/07 00:51:45;;;;;;;7.40;1.98;;;17.00;99.90;;;;;;5092134;28;20566;-79
2021/07/07 00:54:13;;;;;;;4.28;1.75;;;17.00;99.90;;;;;;5092304;28;20198;-80
2021/07/07 00:56:40;;;;;;;7.05;2.15;;;17.00;99.90;;;;;;5085236;28;20175;-78
2021/07/07 00:59:08;;;;;;;9.25;2.63;;;16.90;99.90;;;;;;5072075;28;20246;-80
2021/07/07 01:01:34;;;;;;;5.90;1.70;;;16.90;99.90;;;;;;5071404;28;20244;-79
2021/07/07 01:04:00;;;;;;;12.68;2.03;;;16.90;99.90;;;;;;5073051;28;20526;-80
2021/07/07 01:06:26;;;;;;;7.40;2.00;;;16.90;99.90;;;;;;5078885;28;20169;-79
2021/07/07 01:08:52;;;;;;;14.30;2.83;;;16.90;99.90;;;;;;5108933;28;20178;-85
2021/07/07 01:11:17;;;;;;;8.75;2.55;;;16.90;99.90;;;;;;5091947;28;20178;-81
2021/07/07 01:13:43;;;;;;;3.55;2.42;;;17.10;99.90;;;;;;5091938;28;20599;-80
2021/07/07 01:16:09;;;;;;;7.10;2.22;;;17.10;99.90;;;;;;5088357;28;20213;-80
2021/07/07 01:18:36;;;;;;;4.53;2.38;;;17.10;99.90;;;;;;5072003;28;20224;-80
2021/07/07 01:21:02;;;;;;;9.50;2.25;;;17.00;99.90;;;;;;5072876;28;20220;-80
2021/07/07 01:23:29;;;;;;;5.03;2.13;;;17.00;99.90;;;;;;5071725;28;20178;-79
2021/07/07 01:25:55;;;;;;;5.30;1.83;;;17.00;99.90;;;;;;5072879;28;20249;-81
2021/07/07 01:28:21;;;;;;;8.07;2.30;;;17.00;99.90;;;;;;5071792;28;20170;-80
2021/07/07 01:30:47;;;;;;;8.65;2.80;;;17.10;99.90;;;;;;5071390;28;20249;-80
2021/07/07 01:33:13;;;;;;;5.82;2.40;;;17.00;99.90;;;;;;5054484;28;20203;-80
2021/07/07 01:35:39;;;;;;;9.02;2.55;;;17.00;99.90;;;;;;5071390;28;20317;-80
2021/07/07 01:38:04;;;;;;;3.38;2.20;;;17.10;99.90;;;;;;5072713;28;20203;-80
2021/07/07 01:40:31;;;;;;;8.63;2.75;;;17.10;99.90;;;;;;5054762;28;20179;-80
2021/07/07 01:42:57;;;;;;;7.32;2.55;;;17.10;99.90;;;;;;5054901;28;20181;-80
2021/07/07 01:45:24;;;;;;;8.18;3.03;;;17.20;99.90;;;;;;5054709;28;20646;-80
2021/07/07 01:47:51;;;;;;;6.05;2.60;;;17.20;99.90;;;;;;5072888;28;20167;-80
2021/07/07 01:50:18;;;;;;;10.27;3.00;;;17.20;99.90;;;;;;5071179;28;20658;-83
2021/07/07 01:52:44;;;;;;;4.30;3.20;;;17.20;99.90;;;;;;5071318;28;20175;-80
2021/07/07 01:55:11;;;;;;;5.07;2.90;;;17.20;99.90;;;;;;5071396;28;20233;-80
2021/07/07 01:57:43;;;;;;;7.13;2.85;;;17.20;99.90;;;;;;5090970;28;20192;-80
2021/07/07 02:00:12;;;;;;;7.05;2.35;;;17.00;99.90;;;;;;5088792;28;20639;-80
2021/07/07 02:02:38;;;;;;;3.67;2.08;;;16.90;99.90;;;;;;5076178;28;20690;-80
2021/07/07 02:05:06;;;;;;;3.58;1.83;;;17.00;99.90;;;;;;5058529;28;20163;-81
2021/07/07 02:07:31;;;;;;;6.43;2.65;;;17.00;99.90;;;;;;5074776;28;20512;-81
2021/07/07 02:09:57;;;;;;;7.28;2.53;;;17.00;99.90;;;;;;5074730;28;20189;-80
2021/07/07 02:12:23;;;;;;;4.82;2.47;;;17.10;99.90;;;;;;5058334;28;20254;-80
2021/07/07 02:14:49;;;;;;;5.15;2.35;;;17.10;99.90;;;;;;5075743;28;20704;-80
2021/07/07 02:17:14;;;;;;;8.48;2.50;;;17.20;99.90;;;;;;5073322;28;20186;-80
2021/07/07 02:19:40;;;;;;;6.13;2.70;;;17.20;99.90;;;;;;5096136;28;20630;-80
2021/07/07 02:22:06;;;;;;;7.72;2.95;;;17.30;99.90;;;;;;5096106;28;20162;-80
2021/07/07 02:24:31;;;;;;;7.85;2.33;;;17.30;99.90;;;;;;5096390;28;20174;-79
2021/07/07 02:26:57;;;;;;;4.15;2.50;;;17.20;99.90;;;;;;5111212;28;20286;-81
2021/07/07 02:29:23;;;;;;;6.97;2.40;;;17.10;99.90;;;;;;5094492;28;20174;-81
2021/07/07 02:31:48;;;;;;;5.78;2.15;;;17.00;99.90;;;;;;5073746;28;20232;-80
2021/07/07 02:34:14;;;;;;;3.22;2.20;;;17.00;99.90;;;;;;5074249;28;20229;-81
2021/07/07 02:36:40;;;;;;;9.13;2.47;;;16.90;99.90;;;;;;5087422;28;20296;-82
2021/07/07 02:39:06;;;;;;;6.53;2.58;;;16.90;99.90;;;;;;5095041;28;20668;-80
2021/07/07 02:41:31;;;;;;;8.65;2.60;;;17.00;99.90;;;;;;5095701;28;20181;-80
2021/07/07 02:43:57;;;;;;;6.25;2.60;;;17.00;99.90;;;;;;5094134;28;20264;-80
2021/07/07 02:46:23;;;;;;;7.22;2.10;;;17.10;99.90;;;;;;5094547;28;20182;-81
2021/07/07 02:48:48;;;;;;;6.78;2.38;;;17.20;99.90;;;;;;5094285;28;20256;-80
2021/07/07 02:51:14;;;;;;;5.57;2.17;;;17.20;99.90;;;;;;5094572;28;20170;-80
2021/07/07 02:53:40;;;;;;;4.68;2.10;;;17.20;99.90;;;;;;5094210;28;20677;-80
2021/07/07 02:56:05;;;;;;;8.23;2.83;;;17.20;99.90;;;;;;5075622;28;20262;-80
2021/07/07 02:58:31;;;;;;;2.80;2.10;;;17.20;99.90;;;;;;5074188;28;20178;-84
2021/07/07 03:00:57;;;;;;;7.90;3.20;;;17.30;99.90;;;;;;5073421;28;20658;-79
2021/07/07 03:03:25;;;;;;;6.47;2.28;;;17.20;99.90;;;;;;5073887;28;20631;-80
2021/07/07 03:05:57;;;;;;;6.22;2.08;;;17.30;99.90;;;;;;5088109;28;20181;-80
2021/07/07 03:08:26;;;;;;;7.78;2.72;;;17.30;99.90;;;;;;5109859;28;20261;-80
2021/07/07 03:10:51;;;;;;;5.13;2.22;;;17.30;99.90;;;;;;5095076;28;20162;-80
2021/07/07 03:13:19;;;;;;;5.78;2.22;;;17.30;99.90;;;;;;5110748;28;20220;-80
2021/07/07 03:15:45;;;;;;;6.38;1.98;;;17.30;99.90;;;;;;5078414;28;20183;-81
2021/07/07 03:18:12;;;;;;;8.18;2.28;;;17.30;99.90;;;;;;5074760;28;20185;-79
2021/07/07 03:20:40;;;;;;;4.45;1.77;;;17.20;99.90;;;;;;5074932;28;20171;-80
2021/07/07 03:23:07;;;;;;;11.65;2.17;;;17.20;99.90;;;;;;5073483;28;20269;-80
2021/07/07 03:25:35;;;;;;;2.78;2.05;;;17.20;99.90;;;;;;5087450;28;20170;-81
2021/07/07 03:28:01;;;;;;;5.40;1.90;;;17.20;99.90;;;;;;5093465;28;20193;-80
2021/07/07 03:30:27;;;;;;;5.88;2.33;;;17.20;99.90;;;;;;5081565;28;20631;-79
2021/07/07 03:32:57;;;;;;;5.70;2.20;;;17.30;99.90;;;;;;5074174;28;20179;-80
2021/07/07 03:35:23;;;;;;;4.03;1.92;;;17.30;99.90;;;;;;5076935;28;20206;-80
2021/07/07 03:37:50;;;;;;;6.82;1.95;;;17.30;99.90;;;;;;5053217;28;20195;-80
2021/07/07 03:40:16;;;;;;;6.97;2.88;;;17.20;99.90;;;;;;5069775;28;20175;-80
2021/07/07 03:42:42;;;;;;;16.02;2.22;;;17.20;99.90;;;;;;5069590;28;20171;-80
2021/07/07 03:45:11;;;;;;;6.00;2.00;;;17.00;99.90;;;;;;5084378;28;20604;-79
2021/07/07 03:47:37;;;;;;;8.63;2.40;;;17.00;99.90;;;;;;5093461;28;20172;-79
2021/07/07 03:50:04;;;;;;;9.07;2.33;;;16.80;99.90;;;;;;5110063;28;20695;-79
2021/07/07 03:52:30;;;;;;;9.90;2.20;;;16.70;99.90;;;;;;5109988;28;20209;-79
2021/07/07 03:54:56;;;;;;;4.72;1.88;;;16.70;99.90;;;;;;5093342;28;20247;-79
2021/07/07 03:57:21;;;;;;;15.20;3.00;;;16.60;99.90;;;;;;5092887;28;20269;-82
2021/07/07 03:59:47;;;;;;;12.70;2.97;;;16.60;99.90;;;;;;5084522;28;20181;-80
2021/07/07 04:02:13;;;;;;;5.82;2.10;;;16.50;99.90;;;;;;5074128;28;20163;-80
2021/07/07 04:04:41;;;;;;;6.35;2.42;;;16.60;99.90;;;;;;5083399;28;20186;-79
2021/07/07 04:07:06;;;;;;;12.25;2.63;;;16.50;99.90;;;;;;5109933;28;20170;-79
2021/07/07 04:09:32;;;;;;;8.27;2.50;;;16.50;99.90;;;;;;5093990;28;20185;-79
2021/07/07 04:11:59;;;;;;;7.57;2.95;;;16.50;99.90;;;;;;5092912;28;20170;-80
2021/07/07 04:14:26;;;;;;;10.88;2.28;;;16.60;99.90;;;;;;5085275;28;20209;-80
2021/07/07 04:16:55;;;;;;;17.60;2.47;;;16.50;99.90;;;;;;5073981;28;20639;-80
2021/07/07 04:19:21;;;;;;;4.88;2.35;;;16.60;99.90;;;;;;5073637;28;20163;-80
2021/07/07 04:21:47;;;;;;;8.27;2.53;;;16.60;99.90;;;;;;5072347;28;20167;-80
2021/07/07 04:24:13;;;;;;;6.28;2.80;;;16.50;99.90;;;;;;5077291;28;20250;-80
2021/07/07 04:26:39;;;;;;;8.45;2.50;;;16.60;99.90;;;;;;5093595;28;20618;-80
2021/07/07 04:29:05;;;;;;;13.30;2.85;;;16.60;99.90;;;;;;5091318;28;20187;-80
2021/07/07 04:31:31;;;;;;;8.02;2.20;;;16.70;99.90;;;;;;5072488;28;20171;-80
2021/07/07 04:33:57;;;;;;;12.52;3.17;;;16.70;99.90;;;;;;5056300;28;20256;-79
2021/07/07 04:36:22;;;;;;;6.78;3.53;;;16.80;99.90;;;;;;5072158;28;20178;-80
2021/07/07 04:38:48;;;;;;;12.93;2.72;;;16.90;99.90;;;;;;5073536;28;20631;-81
2021/07/07 04:41:13;;;;;;;4.30;2.40;;;17.00;99.90;;;;;;5072219;28;20178;-79
2021/07/07 04:43:39;;;;;;;6.97;2.63;;;17.20;99.90;;;;;;5072711;28;20179;-80
2021/07/07 04:46:05;;;;;;;17.10;2.50;;;17.50;99.90;;;;;;5093445;28;20174;-80
2021/07/07 04:48:31;;;;;;;5.53;2.10;;;17.70;99.90;;;;;;5092571;28;20177;-80
2021/07/07 04:50:56;;;;;;;14.57;2.72;;;17.90;99.90;;;;;;5093443;28;20299;-80
2021/07/07 04:53:22;;;;;;;7.03;1.80;;;18.20;99.90;;;;;;5091467;28;20198;-84
2021/07/07 04:55:48;;;;;;;14.32;2.10;;;18.80;99.90;;;;;;5073374;28;20179;-85
2021/07/07 04:58:13;;;;;;;12.45;1.80;;;19.60;99.90;;;;;;5055459;28;20193;-81
2021/07/07 05:00:39;;;;;;;10.10;2.60;;;20.40;99.90;;;;;;5073103;28;20197;-81
2021/07/07 05:03:05;;;;;;;9.38;1.90;;;21.10;99.90;;;;;;5055219;28;20171;-81
2021/07/07 05:05:30;;;;;;;8.75;1.77;;;21.70;99.90;;;;;;5089333;28;20181;-80
2021/07/07 05:07:56;;;;;;;11.13;1.73;;;22.30;99.90;;;;;;5093002;28;20223;-80
2021/07/07 05:10:22;;;;;;;11.70;2.15;;;22.50;99.90;;;;;;5093461;28;20173;-80
2021/07/07 05:12:48;;;;;;;13.57;2.17;;;22.80;99.90;;;;;;5092080;28;20208;-81
2021/07/07 05:15:14;;;;;;;13.98;1.80;;;23.30;99.90;;;;;;5074296;28;20189;-81
2021/07/07 05:17:41;;;;;;;7.28;1.73;;;23.60;99.90;;;;;;5072086;28;20171;-80
2021/07/07 05:20:08;;;;;;;9.30;1.90;;;24.00;99.90;;;;;;5087394;28;20261;-79
2021/07/07 05:22:33;;;;;;;6.70;1.60;;;24.20;99.90;;;;;;5081696;28;20171;-80
2021/07/07 05:24:59;;;;;;;15.15;1.65;;;24.50;99.90;;;;;;5071424;28;20240;-80
2021/07/07 05:27:25;;;;;;;9.52;1.88;;;24.30;99.90;;;;;;5071749;28;20179;-78
2021/07/07 05:29:51;;;;;;;9.88;1.80;;;24.50;99.90;;;;;;5072560;28;20178;-80
2021/07/07 05:32:22;;;;;;;12.82;1.80;;;24.60;99.90;;;;;;5073477;28;20887;-78
2021/07/07 05:34:53;;;;;;;5.28;2.10;;;25.10;99.90;;;;;;5072741;28;20254;-79
2021/07/07 05:37:23;;;;;;;10.98;1.35;;;25.60;99.90;;;;;;5095678;28;20265;-81
2021/07/07 05:39:49;;;;;;;7.97;1.65;;;25.70;99.90;;;;;;5112881;28;20386;-79
2021/07/07 05:42:18;;;;;;;8.93;1.95;;;26.00;99.90;;;;;;5097114;28;20166;-80
2021/07/07 05:44:44;;;;;;;10.55;1.73;;;26.30;99.90;;;;;;5112465;28;20185;-80
2021/07/07 05:47:10;;;;;;;5.45;1.40;;;26.90;99.90;;;;;;5096862;28;20193;-79
2021/07/07 05:49:35;;;;;;;5.97;1.40;;;27.20;99.90;;;;;;5096678;28;20172;-79
2021/07/07 05:52:01;;;;;;;8.98;1.60;;;27.50;99.90;;;;;;5096737;28;20463;-79
2021/07/07 05:54:27;;;;;;;14.45;2.17;;;27.80;99.90;;;;;;5086309;28;20203;-79
2021/07/07 05:56:52;;;;;;;8.82;1.60;;;28.40;99.90;;;;;;5075084;28;20643;-79
2021/07/07 05:59:18;;;;;;;7.38;1.52;;;28.70;99.90;;;;;;5074831;28;20269;-78
2021/07/07 06:01:44;;;;;;;6.30;1.67;;;28.90;99.90;;;;;;5075975;28;20265;-78
2021/07/07 06:04:09;;;;;;;9.95;2.03;;;28.70;99.90;;;;;;5065087;28;20213;-80
2021/07/07 06:06:35;;;;;;;13.02;1.45;;;28.80;99.90;;;;;;5096479;28;20166;-79
2021/07/07 06:09:00;;;;;;;9.05;2.05;;;29.10;99.90;;;;;;5096295;28;20178;-80
2021/07/07 06:24:41;;;;;;;11.60;2.47;;;28.90;99.90;;;;;;5130692;27;20568;-81
2021/07/07 06:27:07;;;;;;;11.05;2.08;;;29.80;99.90;;;;;;5130359;28;20575;-82
2021/07/07 06:29:32;;;;;;;8.98;1.45;;;29.80;99.90;;;;;;5130349;28;20161;-83
2021/07/07 06:31:58;;;;;;;5.60;1.58;;;29.60;99.90;;;;;;5113140;28;20222;-82
2021/07/07 06:34:24;;;;;;;3.97;1.58;;;29.30;99.90;;;;;;5115994;27;20811;-82
2021/07/07 06:36:49;;;;;;;4.90;1.63;;;28.50;99.90;;;;;;5109664;28;20604;-82
2021/07/07 06:39:15;;;;;;;7.25;1.60;;;28.00;99.90;;;;;;5110619;28;20240;-81
2021/07/07 06:41:41;;;;;;;8.88;1.67;;;28.30;99.90;;;;;;5092522;28;20184;-82
2021/07/07 06:44:06;;;;;;;17.23;2.10;;;28.40;99.90;;;;;;5109527;28;20284;-82
2021/07/07 06:46:32;;;;;;;5.18;1.90;;;28.80;99.90;;;;;;5109185;28;20183;-81
2021/07/07 06:48:58;;;;;;;15.30;1.70;;;29.10;99.90;;;;;;5110169;28;20634;-81
2021/07/07 06:51:23;;;;;;;12.10;1.80;;;29.20;99.90;;;;;;5109504;28;20170;-81
2021/07/07 06:53:49;;;;;;;8.75;2.13;;;29.20;99.90;;;;;;5099506;28;20176;-81
2021/07/07 06:56:15;;;;;;;7.65;2.20;;;29.80;99.90;;;;;;5129651;28;20181;-81
2021/07/07 06:58:40;;;;;;;9.13;1.40;;;30.30;99.90;;;;;;5129611;28;20169;-83
2021/07/07 07:01:06;;;;;;;12.85;1.83;;;30.10;99.90;;;;;;5095564;28;20225;-84
2021/07/07 07:03:31;;;;;;;4.15;1.65;;;30.40;99.90;;;;;;5128922;27;20208;-86
2021/07/07 07:05:57;;;;;;;10.18;1.48;;;30.30;99.90;;;;;;5095755;28;20568;-83
2021/07/07 07:08:23;;;;;;;4.72;1.40;;;30.70;99.90;;;;;;5095145;28;20166;-84
2021/07/07 07:10:49;;;;;;;10.02;1.70;;;31.20;99.90;;;;;;5110101;28;20214;-83
2021/07/07 07:13:15;;;;;;;7.95;1.65;;;31.50;99.90;;;;;;5094311;28;20550;-82
2021/07/07 07:15:41;;;;;;;5.10;1.60;;;30.40;99.90;;;;;;5129451;28;20169;-82
2021/07/07 07:18:07;;;;;;;4.22;1.50;;;29.50;99.90;;;;;;5123036;27;20166;-82
2021/07/07 07:20:33;;;;;;;5.07;1.45;;;28.90;99.90;;;;;;5108513;28;20178;-83
2021/07/07 07:23:00;;;;;;;4.90;1.50;;;28.70;99.90;;;;;;5110197;28;20217;-84
2021/07/07 07:25:26;;;;;;;6.32;1.50;;;30.10;99.90;;;;;;5096194;28;20201;-83
2021/07/07 07:27:53;;;;;;;6.10;1.92;;;30.60;99.90;;;;;;5109054;28;20273;-83
2021/07/07 07:30:19;;;;;;;8.07;1.65;;;30.70;99.90;;;;;;5114969;28;20166;-84
2021/07/07 07:32:46;;;;;;;3.55;1.60;;;29.10;99.90;;;;;;5115003;28;20629;-83
2021/07/07 07:35:16;;;;;;;9.00;2.20;;;27.40;99.90;;;;;;5096217;28;20174;-82
2021/07/07 07:37:59;;;;;;;11.63;2.20;;;26.60;99.90;;;;;;5094976;28;20609;-81
2021/07/07 07:40:27;;;;;;;16.00;2.50;;;26.30;99.90;;;;;;5095073;28;20174;-81
2021/07/07 07:42:53;;;;;;;15.15;2.10;;;25.90;99.90;;;;;;5094524;28;20190;-81
2021/07/07 07:58:18;;;;;;;4.60;1.80;;;25.40;99.90;;;;;;5090361;27;1273345;-81
2021/07/07 08:00:48;;;;;;;9.57;1.65;;;26.70;99.90;;;;;;5097086;28;20209;-82
2021/07/07 08:03:14;;;;;;;5.13;1.90;;;26.60;99.90;;;;;;5072856;28;20497;-80
2021/07/07 08:05:42;;;;;;;5.55;1.77;;;26.50;99.90;;;;;;5072206;28;20173;-80
2021/07/07 08:08:07;;;;;;;7.97;2.03;;;25.20;99.90;;;;;;5072539;28;20174;-82
2021/07/07 08:10:33;;;;;;;3.92;1.85;;;24.30;99.90;;;;;;5082369;28;20185;-82
2021/07/07 08:12:59;;;;;;;6.25;1.90;;;23.60;99.90;;;;;;5093034;28;20170;-81
2021/07/07 08:15:26;;;;;;;12.90;2.20;;;23.60;99.90;;;;;;5108420;28;20177;-81
2021/07/07 08:17:57;;;;;;;4.80;1.80;;;23.20;99.90;;;;;;5092767;28;20650;-82
2021/07/07 08:20:24;;;;;;;4.07;1.73;;;22.50;99.90;;;;;;5102143;28;20174;-82
2021/07/07 08:22:50;;;;;;;8.18;2.20;;;22.00;99.90;;;;;;5082977;28;20181;-82
2021/07/07 08:25:17;;;;;;;4.60;1.98;;;22.00;99.90;;;;;;5083567;28;20571;-82
2021/07/07 08:27:44;;;;;;;6.63;2.10;;;23.30;99.90;;;;;;5055582;28;20206;-84
2021/07/07 08:30:11;;;;;;;9.80;2.05;;;23.60;99.90;;;;;;5080246;28;20241;-84
2021/07/07 08:32:38;;;;;;;14.65;2.63;;;23.10;99.90;;;;;;5099731;28;20214;-82
2021/07/07 08:35:05;;;;;;;9.07;1.90;;;22.60;99.90;;;;;;5078801;28;20195;-84
2021/07/07 08:37:31;;;;;;;5.43;1.58;;;23.50;99.90;;;;;;5063873;28;20640;-82
2021/07/07 08:39:56;;;;;;;4.18;1.45;;;26.60;99.90;;;;;;5078457;28;20232;-82
2021/07/07 08:42:22;;;;;;;5.57;1.63;;;28.70;99.90;;;;;;5089554;28;20173;-81
2021/07/07 08:44:48;;;;;;;6.25;2.20;;;29.30;99.90;;;;;;5110268;28;20278;-82
2021/07/07 08:47:14;;;;;;;3.33;1.52;;;30.30;99.90;;;;;;5070976;28;20206;-82
2021/07/07 08:49:40;;;;;;;3.92;1.70;;;30.40;99.90;;;;;;5089729;28;20167;-81
2021/07/07 08:52:06;;;;;;;6.22;1.63;;;30.60;99.90;;;;;;5089990;28;20197;-81
2021/07/07 08:54:32;;;;;;;4.90;1.73;;;30.40;99.90;;;;;;5071965;28;20232;-81
2021/07/07 08:57:08;;;;;;;9.95;1.83;;;28.60;99.90;;;;;;5089125;28;20210;-82
2021/07/07 08:59:35;;;;;;;3.92;1.48;;;28.60;99.90;;;;;;5084125;28;20174;-82
2021/07/07 09:02:09;;;;;;;4.38;1.27;;;30.50;99.90;;;;;;5079764;28;20607;-82
2021/07/07 09:04:36;;;;;;;9.88;1.65;;;32.20;99.90;;;;;;5078148;28;20170;-82
2021/07/07 09:07:08;;;;;;;2.55;1.20;;;32.60;99.90;;;;;;5096220;28;20219;-81
2021/07/07 09:09:37;;;;;;;5.28;1.65;;;32.30;99.90;;;;;;5079863;28;20202;-81
2021/07/07 09:12:25;;;;;;;3.75;1.63;;;30.50;99.90;;;;;;5075978;28;20178;-79
2021/07/07 09:15:04;;;;;;;6.13;1.70;;;28.30;99.90;;;;;;5075624;28;20206;-83
2021/07/07 09:17:40;;;;;;;7.38;1.33;;;26.90;99.90;;;;;;5075500;28;20606;-82
2021/07/07 09:20:20;;;;;;;6.80;1.40;;;26.00;99.90;;;;;;5076499;28;20205;-83
2021/07/07 09:22:47;;;;;;;4.68;1.90;;;26.00;99.90;;;;;;5074851;28;20201;-84
2021/07/07 09:25:14;;;;;;;2.55;1.42;;;26.00;99.90;;;;;;5057812;28;20204;-83
2021/07/07 09:27:41;;;;;;;3.85;1.48;;;25.90;99.90;;;;;;5060826;28;20665;-82
2021/07/07 09:30:10;;;;;;;9.05;1.63;;;25.70;99.90;;;;;;5062862;28;20170;-84
2021/07/07 09:32:48;;;;;;;6.18;1.52;;;25.70;99.90;;;;;;5077064;28;20182;-85
2021/07/07 09:35:17;;;;;;;4.82;1.83;;;25.90;99.90;;;;;;5076957;28;20261;-83
2021/07/07 09:37:52;;;;;;;3.92;1.67;;;26.00;99.90;;;;;;5095227;28;20553;-83
2021/07/07 09:40:18;;;;;;;4.38;1.95;;;25.50;99.90;;;;;;5061431;28;20162;-83
2021/07/07 09:42:45;;;;;;;7.82;1.65;;;25.50;99.90;;;;;;5077410;28;20194;-82
2021/07/07 09:45:17;;;;;;;3.88;1.98;;;25.10;99.90;;;;;;5061001;28;20569;-83
2021/07/07 09:47:44;;;;;;;8.95;2.28;;;25.00;99.90;;;;;;5077103;28;20611;-84
2021/07/07 09:50:12;;;;;;;11.05;1.85;;;25.00;99.90;;;;;;5090568;28;20177;-83
2021/07/07 09:52:38;;;;;;;8.52;1.85;;;25.50;99.90;;;;;;5057522;28;20163;-83
2021/07/07 09:55:08;;;;;;;7.95;1.90;;;25.80;99.90;;;;;;5057402;28;20171;-82
2021/07/07 09:57:45;;;;;;;3.80;2.00;;;25.70;99.90;;;;;;5040564;28;20214;-82
2021/07/07 10:00:23;;;;;;;6.00;1.73;;;25.20;99.90;;;;;;5093468;28;20202;-83
2021/07/07 10:02:50;;;;;;;4.55;2.00;;;25.10;99.90;;;;;;5095432;28;20189;-82
2021/07/07 10:05:20;;;;;;;4.45;2.03;;;25.30;99.90;;;;;;5093270;28;20170;-83
2021/07/07 10:07:47;;;;;;;8.57;2.45;;;25.20;99.90;;;;;;5057275;28;20171;-82
2021/07/07 10:10:15;;;;;;;5.07;1.95;;;25.00;99.90;;;;;;5076406;28;20182;-84
2021/07/07 10:12:43;;;;;;;9.18;1.67;;;24.90;99.90;;;;;;5094504;28;20176;-85
2021/07/07 10:15:14;;;;;;;5.80;2.03;;;24.70;99.90;;;;;;5095060;28;20197;-83
2021/07/07 10:17:41;;;;;;;3.45;1.58;;;24.30;99.90;;;;;;5083694;28;20187;-83
2021/07/07 10:20:09;;;;;;;6.78;1.90;;;24.20;99.90;;;;;;5057455;28;20178;-85
2021/07/07 10:22:37;;;;;;;6.78;2.05;;;24.00;99.90;;;;;;5057159;28;20171;-85
2021/07/07 10:25:05;;;;;;;8.57;2.30;;;24.30;99.90;;;;;;5040574;28;20513;-84
2021/07/07 10:27:32;;;;;;;8.57;2.00;;;24.30;99.90;;;;;;5081912;28;20193;-83
2021/07/07 10:29:57;;;;;;;6.95;1.67;;;24.20;99.90;;;;;;5094087;28;20173;-85
2021/07/07 10:32:28;;;;;;;5.82;1.80;;;23.90;99.90;;;;;;5057154;28;20631;-83
2021/07/07 10:34:54;;;;;;;7.32;2.10;;;24.00;99.90;;;;;;5057425;28;20201;-84
2021/07/07 10:37:23;;;;;;;7.72;1.70;;;24.30;99.90;;;;;;5057402;28;20199;-88
2021/07/07 10:39:49;;;;;;;11.02;2.08;;;24.30;99.90;;;;;;5057763;28;20177;-87
2021/07/07 10:42:15;;;;;;;7.55;2.05;;;24.20;99.90;;;;;;5041463;28;20175;-87
2021/07/07 10:44:42;;;;;;;6.65;1.95;;;24.70;99.90;;;;;;5066005;28;20197;-87
2021/07/07 10:47:11;;;;;;;4.43;1.90;;;24.90;99.90;;;;;;5074777;28;20178;-82
2021/07/07 10:49:38;;;;;;;14.23;2.50;;;25.30;99.90;;;;;;5056629;28;20241;-85
2021/07/07 10:52:05;;;;;;;7.22;1.60;;;25.60;99.90;;;;;;5074643;28;20195;-81
2021/07/07 10:54:33;;;;;;;3.20;1.73;;;27.60;99.90;;;;;;5073795;28;20534;-81
2021/07/07 10:57:02;;;;;;;5.50;1.95;;;29.80;99.90;;;;;;5076906;28;20202;-80
2021/07/07 10:59:34;;;;;;;4.80;2.00;;;31.30;99.90;;;;;;5075900;28;20647;-81
2021/07/07 11:02:07;;;;;;;3.83;1.58;;;32.60;99.90;;;;;;5093254;28;20567;-80
2021/07/07 11:04:43;;;;;;;3.65;1.92;;;32.50;99.90;;;;;;5093486;28;20158;-81
2021/07/07 11:07:27;;;;;;;7.35;1.52;;;32.40;99.90;;;;;;5089298;28;20182;-81
2021/07/07 11:09:54;;;;;;;4.85;1.58;;;33.20;99.90;;;;;;5091487;28;20592;-82
2021/07/07 11:12:35;;;;;;;4.80;1.40;;;34.00;99.90;;;;;;5073620;28;20198;-81
2021/07/07 11:15:04;;;;;;;4.72;1.85;;;33.20;99.90;;;;;;5055591;28;20167;-81
2021/07/07 11:17:42;;;;;;;3.92;1.90;;;32.00;99.90;;;;;;5069759;28;20198;-81
2021/07/07 11:20:16;;;;;;;7.65;1.95;;;30.40;99.90;;;;;;5072242;28;20217;-80
2021/07/07 11:22:45;;;;;;;5.88;2.28;;;29.00;99.90;;;;;;5055356;28;20269;-81
2021/07/07 11:25:16;;;;;;;7.47;1.75;;;28.40;99.90;;;;;;5073076;28;20167;-85
2021/07/07 11:27:43;;;;;;;8.20;2.05;;;29.10;99.90;;;;;;5090797;28;20178;-86
2021/07/07 11:30:11;;;;;;;4.15;1.92;;;31.10;99.90;;;;;;5072050;28;20182;-85
2021/07/07 11:32:51;;;;;;;7.95;1.70;;;31.70;99.90;;;;;;5038725;28;20178;-86
2021/07/07 11:35:22;;;;;;;8.60;1.80;;;32.60;99.90;;;;;;5056055;28;20225;-85
2021/07/07 11:37:53;;;;;;;2.88;1.63;;;32.90;99.90;;;;;;5055399;28;20306;-85
2021/07/07 11:40:20;;;;;;;5.30;1.83;;;33.60;99.90;;;;;;5059379;28;20189;-84
2021/07/07 11:43:07;;;;;;;6.57;2.00;;;35.10;99.90;;;;;;5094223;28;20248;-85
2021/07/07 11:45:38;;;;;;;4.80;1.38;;;35.80;99.90;;;;;;5092959;28;20180;-84
2021/07/07 11:50:46;;;;;;;3.53;1.30;;;35.00;99.90;;;;;;5080288;28;20260;-85
2021/07/07 11:53:12;;;;;;;5.63;1.60;;;33.60;99.90;;;;;;5094071;28;20162;-85
2021/07/07 11:55:50;;;;;;;2.97;1.10;;;32.70;99.90;;;;;;5092808;28;20174;-83
2021/07/07 11:58:42;;;;;;;4.22;1.55;;;32.90;99.90;;;;;;5075400;28;20189;-85
2021/07/07 12:01:13;;;;;;;2.53;1.35;;;33.40;99.90;;;;;;5082420;28;20177;-85
2021/07/07 12:03:39;;;;;;;11.80;1.45;;;33.70;99.90;;;;;;5055562;28;20594;-85
2021/07/07 12:06:12;;;;;;;8.18;1.90;;;33.70;99.90;;;;;;5055747;28;20183;-84
2021/07/07 12:08:41;;;;;;;7.35;1.55;;;32.90;99.90;;;;;;5073465;28;20173;-85
2021/07/07 12:11:12;;;;;;;4.68;1.60;;;31.70;99.90;;;;;;5083518;28;20301;-85
2021/07/07 12:13:43;;;;;;;12.57;1.75;;;31.10;99.90;;;;;;5093282;28;20162;-83
2021/07/07 12:16:32;;;;;;;3.97;1.65;;;31.00;99.90;;;;;;5074587;28;20213;-83
2021/07/07 12:19:01;;;;;;;6.28;1.58;;;30.60;99.90;;;;;;5075701;28;20208;-85
2021/07/07 12:21:26;;;;;;;8.45;1.88;;;30.40;99.90;;;;;;5079918;28;20210;-84
2021/07/07 12:23:58;;;;;;;2.55;1.70;;;30.50;99.90;;;;;;5055113;28;20198;-86
2021/07/07 12:26:26;;;;;;;4.57;1.70;;;29.60;99.90;;;;;;5072821;28;20182;-84
2021/07/07 12:28:55;;;;;;;7.10;1.92;;;28.10;99.90;;;;;;5073106;28;20170;-86
2021/07/07 12:31:21;;;;;;;4.95;1.67;;;27.20;99.90;;;;;;5084441;28;20193;-86
2021/07/07 12:33:51;;;;;;;2.78;1.38;;;26.80;99.90;;;;;;5061133;28;20174;-85
2021/07/07 12:36:27;;;;;;;3.78;1.38;;;26.70;99.90;;;;;;5077052;28;20228;-84
2021/07/07 12:38:56;;;;;;;3.78;1.63;;;26.50;99.90;;;;;;5097044;28;20208;-83
2021/07/07 12:41:30;;;;;;;4.63;1.70;;;26.00;99.90;;;;;;5059196;28;20174;-87
2021/07/07 12:43:56;;;;;;;6.15;1.60;;;26.00;99.90;;;;;;5059210;28;20182;-85
2021/07/07 12:46:23;;;;;;;11.32;1.60;;;26.00;99.90;;;;;;5057825;28;20205;-84
2021/07/07 12:48:55;;;;;;;3.38;1.60;;;26.10;99.90;;;;;;5097180;28;20170;-87
2021/07/07 12:51:29;;;;;;;4.38;1.52;;;26.20;99.90;;;;;;5066922;28;20182;-86
2021/07/07 12:53:57;;;;;;;7.72;1.80;;;26.60;99.90;;;;;;5076935;28;20655;-86
2021/07/07 12:56:23;;;;;;;3.15;1.52;;;26.70;99.90;;;;;;5059178;28;20206;-86
2021/07/07 12:59:09;;;;;;;6.05;1.35;;;27.00;99.90;;;;;;5042333;28;20175;-84
2021/07/07 13:01:35;;;;;;;7.13;1.38;;;26.80;99.90;;;;;;5089134;28;20658;-86
2021/07/07 13:04:00;;;;;;;5.88;1.40;;;26.50;99.90;;;;;;5097043;28;20174;-85
2021/07/07 13:06:26;;;;;;;4.53;1.60;;;26.50;99.90;;;;;;5050239;28;20171;-86
2021/07/07 13:09:04;;;;;;;14.10;1.58;;;26.50;99.90;;;;;;5058964;28;20193;-86
2021/07/07 13:11:30;;;;;;;3.95;1.20;;;26.50;99.90;;;;;;5054128;28;20174;-86
2021/07/07 13:13:58;;;;;;;3.17;1.40;;;26.70;99.90;;;;;;5061754;28;20608;-85
2021/07/07 13:16:32;;;;;;;8.20;1.92;;;26.90;99.90;;;;;;5077347;28;20213;-86